sensor_id;sensor_type;location;lat;lon;timestamp;pressure;altitude;pressure_sealevel;temperature;humidity
83191;BME280;73087;49.924;22.080;2023-11-19T00:00:40;99488.06;;;5.13;77.99
83191;BME280;73087;49.924;22.080;2023-11-19T00:01:41;99482.88;;;5.13;77.71
83191;BME280;73087;49.924;22.080;2023-11-19T00:02:42;99477.66;;;5.13;77.93
83191;BME280;73087;49.924;22.080;2023-11-19T00:03:42;99483.91;;;5.10;77.50
83191;BME280;73087;49.924;22.080;2023-11-19T00:04:43;99484.88;;;5.08;78.04
83191;BME280;73087;49.924;22.080;2023-11-19T00:05:43;99475.28;;;5.08;77.70
83191;BME280;73087;49.924;22.080;2023-11-19T00:06:44;99469.25;;;5.08;77.45
83191;BME280;73087;49.924;22.080;2023-11-19T00:07:44;99468.28;;;5.10;77.97
83191;BME280;73087;49.924;22.080;2023-11-19T00:08:45;99470.78;;;5.12;77.58
83191;BME280;73087;49.924;22.080;2023-11-19T00:09:47;99470.63;;;5.15;77.84
83191;BME280;73087;49.924;22.080;2023-11-19T00:10:47;99472.13;;;5.19;77.80
83191;BME280;73087;49.924;22.080;2023-11-19T00:11:48;99472.97;;;5.19;77.75
83191;BME280;73087;49.924;22.080;2023-11-19T00:12:49;99480.84;;;5.18;77.81
83191;BME280;73087;49.924;22.080;2023-11-19T00:13:50;99472.13;;;5.19;77.71
83191;BME280;73087;49.924;22.080;2023-11-19T00:14:50;99471.13;;;5.21;78.00
83191;BME280;73087;49.924;22.080;2023-11-19T00:15:51;99470.28;;;5.21;77.25
83191;BME280;73087;49.924;22.080;2023-11-19T00:16:51;99473.06;;;5.18;77.95
83191;BME280;73087;49.924;22.080;2023-11-19T00:17:52;99463.56;;;5.17;78.32
83191;BME280;73087;49.924;22.080;2023-11-19T00:18:52;99466.16;;;5.17;77.67
83191;BME280;73087;49.924;22.080;2023-11-19T00:19:53;99457.53;;;5.16;77.51
83191;BME280;73087;49.924;22.080;2023-11-19T00:20:54;99453.16;;;5.17;77.68
83191;BME280;73087;49.924;22.080;2023-11-19T00:21:54;99456.34;;;5.22;78.07
83191;BME280;73087;49.924;22.080;2023-11-19T00:22:55;99453.72;;;5.22;77.71
83191;BME280;73087;49.924;22.080;2023-11-19T00:23:55;99456.34;;;5.22;77.98
83191;BME280;73087;49.924;22.080;2023-11-19T00:24:57;99451.13;;;5.22;77.84
83191;BME280;73087;49.924;22.080;2023-11-19T00:25:58;99459.88;;;5.21;77.48
83191;BME280;73087;49.924;22.080;2023-11-19T00:26:58;99461.53;;;5.22;76.94
83191;BME280;73087;49.924;22.080;2023-11-19T00:27:59;99464.91;;;5.24;77.00
83191;BME280;73087;49.924;22.080;2023-11-19T00:28:59;99464.78;;;5.27;77.55
83191;BME280;73087;49.924;22.080;2023-11-19T00:30:00;99468.25;;;5.26;78.20
83191;BME280;73087;49.924;22.080;2023-11-19T00:31:00;99464.78;;;5.27;77.42
83191;BME280;73087;49.924;22.080;2023-11-19T00:32:01;99452.50;;;5.29;77.81
83191;BME280;73087;49.924;22.080;2023-11-19T00:33:02;99456.03;;;5.28;77.48
83191;BME280;73087;49.924;22.080;2023-11-19T00:34:02;99450.97;;;5.25;77.05
83191;BME280;73087;49.924;22.080;2023-11-19T00:35:03;99457.84;;;5.26;77.67
83191;BME280;73087;49.924;22.080;2023-11-19T00:36:05;99459.56;;;5.27;77.92
83191;BME280;73087;49.924;22.080;2023-11-19T00:37:05;99457.72;;;5.29;78.12
83191;BME280;73087;49.924;22.080;2023-11-19T00:38:06;99434.16;;;5.15;77.24
83191;BME280;73087;49.924;22.080;2023-11-19T00:39:07;99450.81;;;5.28;77.50
83191;BME280;73087;49.924;22.080;2023-11-19T00:40:10;99454.50;;;5.24;77.24
83191;BME280;73087;49.924;22.080;2023-11-19T00:41:10;99452.06;;;5.21;78.21
83191;BME280;73087;49.924;22.080;2023-11-19T00:42:11;99450.47;;;5.18;77.19
83191;BME280;73087;49.924;22.080;2023-11-19T00:43:11;99446.09;;;5.19;77.82
83191;BME280;73087;49.924;22.080;2023-11-19T00:44:12;99451.31;;;5.19;78.19
83191;BME280;73087;49.924;22.080;2023-11-19T00:45:13;99459.88;;;5.21;76.82
83191;BME280;73087;49.924;22.080;2023-11-19T00:46:13;99454.66;;;5.21;77.40
83191;BME280;73087;49.924;22.080;2023-11-19T00:47:14;99458.19;;;5.20;77.79
83191;BME280;73087;49.924;22.080;2023-11-19T00:48:14;99454.66;;;5.21;77.51
83191;BME280;73087;49.924;22.080;2023-11-19T00:49:15;99452.97;;;5.20;77.07
83191;BME280;73087;49.924;22.080;2023-11-19T00:50:15;99456.50;;;5.19;77.38
83191;BME280;73087;49.924;22.080;2023-11-19T00:51:16;99453.16;;;5.17;77.35
83191;BME280;73087;49.924;22.080;2023-11-19T00:52:16;99449.78;;;5.15;77.58
83191;BME280;73087;49.924;22.080;2023-11-19T00:53:17;99455.00;;;5.15;77.77
83191;BME280;73087;49.924;22.080;2023-11-19T00:54:18;99453.16;;;5.17;77.21
83191;BME280;73087;49.924;22.080;2023-11-19T00:55:19;99453.16;;;5.17;77.46
83191;BME280;73087;49.924;22.080;2023-11-19T00:56:20;99451.47;;;5.16;77.54
83191;BME280;73087;49.924;22.080;2023-11-19T00:57:21;99455.00;;;5.15;77.76
83191;BME280;73087;49.924;22.080;2023-11-19T00:58:21;99457.59;;;5.15;77.35
83191;BME280;73087;49.924;22.080;2023-11-19T00:59:22;99465.41;;;5.15;77.25
83191;BME280;73087;49.924;22.080;2023-11-19T01:00:22;99456.00;;;5.12;77.69
83191;BME280;73087;49.924;22.080;2023-11-19T01:01:23;99451.81;;;5.10;77.85
83191;BME280;73087;49.924;22.080;2023-11-19T01:02:24;99453.47;;;5.11;78.01
83191;BME280;73087;49.924;22.080;2023-11-19T01:03:25;99455.16;;;5.12;78.06
83191;BME280;73087;49.924;22.080;2023-11-19T01:04:25;99439.38;;;5.15;77.35
83191;BME280;73087;49.924;22.080;2023-11-19T01:05:26;99439.03;;;5.21;78.59
83191;BME280;73087;49.924;22.080;2023-11-19T01:06:27;99437.53;;;5.17;77.92
83191;BME280;73087;49.924;22.080;2023-11-19T01:07:27;99433.84;;;5.21;77.03
83191;BME280;73087;49.924;22.080;2023-11-19T01:08:28;99439.03;;;5.21;77.48
83191;BME280;73087;49.924;22.080;2023-11-19T01:09:29;99428.63;;;5.21;78.41
83191;BME280;73087;49.924;22.080;2023-11-19T01:10:30;99423.41;;;5.21;78.00
83191;BME280;73087;49.924;22.080;2023-11-19T01:11:31;99409.66;;;5.19;77.59
83191;BME280;73087;49.924;22.080;2023-11-19T01:12:32;99414.84;;;5.19;77.83
83191;BME280;73087;49.924;22.080;2023-11-19T01:13:32;99418.38;;;5.18;77.70
83191;BME280;73087;49.924;22.080;2023-11-19T01:14:33;99406.28;;;5.17;77.96
83191;BME280;73087;49.924;22.080;2023-11-19T01:15:33;99406.28;;;5.17;77.12
83191;BME280;73087;49.924;22.080;2023-11-19T01:16:34;99406.28;;;5.17;77.33
83191;BME280;73087;49.924;22.080;2023-11-19T01:17:34;99402.94;;;5.15;77.96
83191;BME280;73087;49.924;22.080;2023-11-19T01:18:36;99407.97;;;5.18;78.17
83191;BME280;73087;49.924;22.080;2023-11-19T01:19:37;99414.84;;;5.19;77.10
83191;BME280;73087;49.924;22.080;2023-11-19T01:20:37;99420.06;;;5.19;77.98
83191;BME280;73087;49.924;22.080;2023-11-19T01:21:38;99425.28;;;5.19;77.54
83191;BME280;73087;49.924;22.080;2023-11-19T01:22:38;99418.38;;;5.18;77.18
83191;BME280;73087;49.924;22.080;2023-11-19T01:23:39;99418.56;;;5.15;78.00
83191;BME280;73087;49.924;22.080;2023-11-19T01:24:39;99420.41;;;5.13;76.83
83191;BME280;73087;49.924;22.080;2023-11-19T01:25:42;99422.25;;;5.11;76.75
83191;BME280;73087;49.924;22.080;2023-11-19T01:26:43;99420.56;;;5.10;77.73
83191;BME280;73087;49.924;22.080;2023-11-19T01:27:44;99422.41;;;5.08;77.53
83191;BME280;73087;49.924;22.080;2023-11-19T01:28:44;99410.50;;;5.04;77.90
83191;BME280;73087;49.924;22.080;2023-11-19T01:29:45;99412.16;;;5.05;77.83
83191;BME280;73087;49.924;22.080;2023-11-19T01:30:45;99412.34;;;5.02;77.56
83191;BME280;73087;49.924;22.080;2023-11-19T01:31:46;99412.50;;;4.99;77.66
83191;BME280;73087;49.924;22.080;2023-11-19T01:32:47;99416.03;;;4.98;77.58
83191;BME280;73087;49.924;22.080;2023-11-19T01:33:47;99416.03;;;4.98;77.85
83191;BME280;73087;49.924;22.080;2023-11-19T01:34:48;99413.66;;;4.93;77.81
83191;BME280;73087;49.924;22.080;2023-11-19T01:35:48;99412.22;;;4.88;77.04
83191;BME280;73087;49.924;22.080;2023-11-19T01:36:49;99414.81;;;4.88;78.03
83191;BME280;73087;49.924;22.080;2023-11-19T01:37:49;99411.28;;;4.89;77.70
83191;BME280;73087;49.924;22.080;2023-11-19T01:38:50;99407.75;;;4.90;77.87
83191;BME280;73087;49.924;22.080;2023-11-19T01:39:50;99402.56;;;4.90;77.59
83191;BME280;73087;49.924;22.080;2023-11-19T01:40:55;99397.53;;;4.87;77.87
83191;BME280;73087;49.924;22.080;2023-11-19T01:41:56;99400.88;;;4.89;78.60
83191;BME280;73087;49.924;22.080;2023-11-19T01:42:57;99397.34;;;4.90;78.27
83191;BME280;73087;49.924;22.080;2023-11-19T01:43:57;99391.34;;;4.89;77.71
83191;BME280;73087;49.924;22.080;2023-11-19T01:44:58;99390.56;;;4.87;77.95
83191;BME280;73087;49.924;22.080;2023-11-19T01:45:59;99395.69;;;4.89;78.03
83191;BME280;73087;49.924;22.080;2023-11-19T01:46:59;99392.31;;;4.87;76.93
83191;BME280;73087;49.924;22.080;2023-11-19T01:48:02;99385.28;;;4.89;78.31
83191;BME280;73087;49.924;22.080;2023-11-19T01:49:04;99381.56;;;4.93;77.88
83191;BME280;73087;49.924;22.080;2023-11-19T01:50:06;99379.75;;;4.95;77.51
83191;BME280;73087;49.924;22.080;2023-11-19T01:51:08;99379.44;;;5.01;77.89
83191;BME280;73087;49.924;22.080;2023-11-19T01:52:08;99370.53;;;5.05;77.52
83191;BME280;73087;49.924;22.080;2023-11-19T01:53:09;99370.34;;;5.08;77.75
83191;BME280;73087;49.924;22.080;2023-11-19T01:54:10;99368.50;;;5.10;77.30
83191;BME280;73087;49.924;22.080;2023-11-19T01:55:11;99360.53;;;5.13;77.40
83191;BME280;73087;49.924;22.080;2023-11-19T01:56:14;99357.75;;;5.16;77.81
83191;BME280;73087;49.924;22.080;2023-11-19T01:57:15;99364.47;;;5.20;77.63
83191;BME280;73087;49.924;22.080;2023-11-19T01:58:16;99357.41;;;5.22;77.54
83191;BME280;73087;49.924;22.080;2023-11-19T01:59:17;99347.00;;;5.22;77.54
83191;BME280;73087;49.924;22.080;2023-11-19T02:00:18;99350.34;;;5.24;77.43
83191;BME280;73087;49.924;22.080;2023-11-19T02:01:19;99353.88;;;5.23;76.86
83191;BME280;73087;49.924;22.080;2023-11-19T02:02:20;99350.34;;;5.24;77.28
83191;BME280;73087;49.924;22.080;2023-11-19T02:03:21;99357.41;;;5.22;76.63
83191;BME280;73087;49.924;22.080;2023-11-19T02:04:22;99345.31;;;5.21;77.62
83191;BME280;73087;49.924;22.080;2023-11-19T02:05:22;99362.63;;;5.22;76.97
83191;BME280;73087;49.924;22.080;2023-11-19T02:06:23;99363.53;;;5.21;76.33
83191;BME280;73087;49.924;22.080;2023-11-19T02:07:25;99354.06;;;5.20;76.79
83191;BME280;73087;49.924;22.080;2023-11-19T02:08:26;99323.00;;;5.01;76.47
83191;BME280;73087;49.924;22.080;2023-11-19T02:09:26;99364.56;;;5.18;76.13
83191;BME280;73087;49.924;22.080;2023-11-19T02:10:27;99362.88;;;5.17;76.66
83191;BME280;73087;49.924;22.080;2023-11-19T02:11:29;99366.41;;;5.16;76.45
83191;BME280;73087;49.924;22.080;2023-11-19T02:12:30;99364.63;;;5.17;76.20
83191;BME280;73087;49.924;22.080;2023-11-19T02:13:30;99361.28;;;5.15;77.12
83191;BME280;73087;49.924;22.080;2023-11-19T02:14:31;99359.59;;;5.14;76.64
83191;BME280;73087;49.924;22.080;2023-11-19T02:15:31;99361.28;;;5.15;76.68
83191;BME280;73087;49.924;22.080;2023-11-19T02:16:32;99357.75;;;5.16;76.39
83191;BME280;73087;49.924;22.080;2023-11-19T02:17:33;99326.28;;;5.05;76.26
83191;BME280;73087;49.924;22.080;2023-11-19T02:18:33;99350.88;;;5.15;76.07
83191;BME280;73087;49.924;22.080;2023-11-19T02:19:34;99337.28;;;5.10;75.62
83191;BME280;73087;49.924;22.080;2023-11-19T02:20:34;99333.75;;;5.11;76.24
83191;BME280;73087;49.924;22.080;2023-11-19T02:21:35;99339.81;;;5.11;76.56
83191;BME280;73087;49.924;22.080;2023-11-19T02:22:35;99338.78;;;5.14;76.47
83191;BME280;73087;49.924;22.080;2023-11-19T02:23:36;99338.59;;;5.17;76.29
83191;BME280;73087;49.924;22.080;2023-11-19T02:24:37;99340.28;;;5.18;76.43
83191;BME280;73087;49.924;22.080;2023-11-19T02:25:38;99338.59;;;5.17;76.97
83191;BME280;73087;49.924;22.080;2023-11-19T02:26:47;99345.84;;;5.12;76.51
83191;BME280;73087;49.924;22.080;2023-11-19T02:27:53;99350.78;;;5.16;75.84
83191;BME280;73087;49.924;22.080;2023-11-19T02:28:54;99350.69;;;5.18;76.55
83191;BME280;73087;49.924;22.080;2023-11-19T02:29:55;99348.84;;;5.20;76.27
83191;BME280;73087;49.924;22.080;2023-11-19T02:30:56;99348.66;;;5.23;77.28
83191;BME280;73087;49.924;22.080;2023-11-19T02:31:56;99345.13;;;5.24;76.29
83191;BME280;73087;49.924;22.080;2023-11-19T02:32:57;99346.06;;;5.23;76.35
83191;BME280;73087;49.924;22.080;2023-11-19T02:33:59;99340.09;;;5.21;76.89
83191;BME280;73087;49.924;22.080;2023-11-19T02:34:59;99340.28;;;5.18;76.26
83191;BME280;73087;49.924;22.080;2023-11-19T02:36:00;99335.25;;;5.15;77.00
83191;BME280;73087;49.924;22.080;2023-11-19T02:37:00;99325.00;;;5.12;76.58
83191;BME280;73087;49.924;22.080;2023-11-19T02:38:01;99321.81;;;5.07;76.34
83191;BME280;73087;49.924;22.080;2023-11-19T02:39:01;99320.31;;;5.03;75.59
83191;BME280;73087;49.924;22.080;2023-11-19T02:40:02;99325.69;;;5.00;76.41
83191;BME280;73087;49.924;22.080;2023-11-19T02:41:03;99320.81;;;4.94;76.26
83191;BME280;73087;49.924;22.080;2023-11-19T02:42:05;99322.81;;;4.89;76.46
83191;BME280;73087;49.924;22.080;2023-11-19T02:43:07;99331.72;;;4.85;76.30
83191;BME280;73087;49.924;22.080;2023-11-19T02:44:07;99329.13;;;4.85;76.79
83191;BME280;73087;49.924;22.080;2023-11-19T02:45:08;99333.41;;;4.86;77.76
83191;BME280;73087;49.924;22.080;2023-11-19T02:46:09;99331.56;;;4.88;77.81
83191;BME280;73087;49.924;22.080;2023-11-19T02:47:09;99328.03;;;4.89;77.33
83191;BME280;73087;49.924;22.080;2023-11-19T02:48:10;99324.50;;;4.90;76.80
83191;BME280;73087;49.924;22.080;2023-11-19T02:49:11;99324.66;;;4.87;77.35
83191;BME280;73087;49.924;22.080;2023-11-19T02:50:11;99317.78;;;4.86;77.17
83191;BME280;73087;49.924;22.080;2023-11-19T02:51:12;99316.09;;;4.85;77.64
83191;BME280;73087;49.924;22.080;2023-11-19T02:52:12;99311.66;;;4.87;76.62
83191;BME280;73087;49.924;22.080;2023-11-19T02:53:13;99311.66;;;4.87;77.23
83191;BME280;73087;49.924;22.080;2023-11-19T02:54:14;99310.91;;;4.85;76.35
83191;BME280;73087;49.924;22.080;2023-11-19T02:55:14;99307.56;;;4.83;77.48
83191;BME280;73087;49.924;22.080;2023-11-19T02:56:15;99307.56;;;4.83;76.99
83191;BME280;73087;49.924;22.080;2023-11-19T02:57:15;99304.03;;;4.84;76.91
83191;BME280;73087;49.924;22.080;2023-11-19T02:58:17;99305.53;;;4.88;76.96
83191;BME280;73087;49.924;22.080;2023-11-19T02:59:18;99297.56;;;4.91;77.77
83191;BME280;73087;49.924;22.080;2023-11-19T03:00:19;99271.63;;;4.74;77.28
83191;BME280;73087;49.924;22.080;2023-11-19T03:01:23;99291.28;;;4.95;76.93
83191;BME280;73087;49.924;22.080;2023-11-19T03:02:24;99297.31;;;4.95;76.84
83191;BME280;73087;49.924;22.080;2023-11-19T03:03:25;99301.69;;;4.95;77.59
83191;BME280;73087;49.924;22.080;2023-11-19T03:04:25;99296.50;;;4.95;77.04
83191;BME280;73087;49.924;22.080;2023-11-19T03:05:27;99296.50;;;4.95;76.32
83191;BME280;73087;49.924;22.080;2023-11-19T03:06:27;99292.97;;;4.96;77.51
83191;BME280;73087;49.924;22.080;2023-11-19T03:07:28;99293.88;;;4.95;76.70
83191;BME280;73087;49.924;22.080;2023-11-19T03:08:28;99223.97;;;4.58;76.09
83191;BME280;73087;49.924;22.080;2023-11-19T03:09:29;99286.09;;;4.95;76.43
83191;BME280;73087;49.924;22.080;2023-11-19T03:10:29;99284.38;;;4.94;77.67
83191;BME280;73087;49.924;22.080;2023-11-19T03:11:30;99281.19;;;4.89;77.37
83191;BME280;73087;49.924;22.080;2023-11-19T03:12:31;99289.56;;;4.94;77.24
83191;BME280;73087;49.924;22.080;2023-11-19T03:13:33;99286.09;;;4.95;76.67
83191;BME280;73087;49.924;22.080;2023-11-19T03:14:34;99289.44;;;4.97;77.08
83191;BME280;73087;49.924;22.080;2023-11-19T03:15:34;99279.03;;;4.97;77.56
83191;BME280;73087;49.924;22.080;2023-11-19T03:16:35;99296.31;;;4.98;76.87
83191;BME280;73087;49.924;22.080;2023-11-19T03:17:36;99285.91;;;4.98;77.36
83191;BME280;73087;49.924;22.080;2023-11-19T03:18:36;99278.84;;;5.00;77.08
83191;BME280;73087;49.924;22.080;2023-11-19T03:19:37;99278.69;;;5.03;76.85
83191;BME280;73087;49.924;22.080;2023-11-19T03:20:37;99276.81;;;5.05;76.91
83191;BME280;73087;49.924;22.080;2023-11-19T03:21:38;99272.28;;;5.08;76.99
83191;BME280;73087;49.924;22.080;2023-11-19T03:22:38;99274.81;;;5.10;77.34
83191;BME280;73087;49.924;22.080;2023-11-19T03:23:39;99274.81;;;5.10;76.82
83191;BME280;73087;49.924;22.080;2023-11-19T03:24:39;99269.59;;;5.10;77.29
83191;BME280;73087;49.924;22.080;2023-11-19T03:25:40;99279.84;;;5.13;76.75
83191;BME280;73087;49.924;22.080;2023-11-19T03:26:40;99273.69;;;5.14;76.65
83191;BME280;73087;49.924;22.080;2023-11-19T03:27:41;99267.75;;;5.12;76.27
83191;BME280;73087;49.924;22.080;2023-11-19T03:28:43;99266.91;;;5.11;77.44
83191;BME280;73087;49.924;22.080;2023-11-19T03:29:43;99265.25;;;5.10;76.49
83191;BME280;73087;49.924;22.080;2023-11-19T03:30:44;99267.75;;;5.12;76.76
83191;BME280;73087;49.924;22.080;2023-11-19T03:31:44;99264.22;;;5.13;76.19
83191;BME280;73087;49.924;22.080;2023-11-19T03:32:45;99262.34;;;5.15;76.88
83191;BME280;73087;49.924;22.080;2023-11-19T03:33:46;99256.22;;;5.16;77.39
83191;BME280;73087;49.924;22.080;2023-11-19T03:34:46;99258.84;;;5.16;76.38
83191;BME280;73087;49.924;22.080;2023-11-19T03:35:47;99256.34;;;5.14;76.76
83191;BME280;73087;49.924;22.080;2023-11-19T03:36:47;99255.66;;;5.11;76.23
83191;BME280;73087;49.924;22.080;2023-11-19T03:37:48;99255.81;;;5.08;77.12
83191;BME280;73087;49.924;22.080;2023-11-19T03:38:48;99256.00;;;5.05;76.30
83191;BME280;73087;49.924;22.080;2023-11-19T03:39:49;99266.59;;;5.02;77.02
83191;BME280;73087;49.924;22.080;2023-11-19T03:40:49;99264.91;;;5.01;77.24
83191;BME280;73087;49.924;22.080;2023-11-19T03:41:50;99256.34;;;4.99;76.85
83191;BME280;73087;49.924;22.080;2023-11-19T03:42:51;99265.91;;;4.98;77.42
83191;BME280;73087;49.924;22.080;2023-11-19T03:43:53;99263.41;;;4.97;76.88
83191;BME280;73087;49.924;22.080;2023-11-19T03:44:53;99259.88;;;4.98;77.60
83191;BME280;73087;49.924;22.080;2023-11-19T03:45:54;99259.88;;;4.98;76.85
83191;BME280;73087;49.924;22.080;2023-11-19T03:46:54;99253.00;;;4.97;77.72
83191;BME280;73087;49.924;22.080;2023-11-19T03:47:55;99249.66;;;4.95;76.81
83191;BME280;73087;49.924;22.080;2023-11-19T03:48:55;99242.72;;;4.94;77.40
83191;BME280;73087;49.924;22.080;2023-11-19T03:49:56;99241.06;;;4.93;78.08
83191;BME280;73087;49.924;22.080;2023-11-19T03:50:56;99241.06;;;4.93;78.07
83191;BME280;73087;49.924;22.080;2023-11-19T03:51:57;99239.38;;;4.92;76.91
83191;BME280;73087;49.924;22.080;2023-11-19T03:52:57;99234.19;;;4.92;78.44
83191;BME280;73087;49.924;22.080;2023-11-19T03:53:58;99235.84;;;4.93;77.04
83191;BME280;73087;49.924;22.080;2023-11-19T03:54:58;99226.47;;;4.90;77.60
83191;BME280;73087;49.924;22.080;2023-11-19T03:55:59;99232.50;;;4.91;78.34
83191;BME280;73087;49.924;22.080;2023-11-19T03:57:00;99223.94;;;4.89;77.46
83191;BME280;73087;49.924;22.080;2023-11-19T03:58:00;99219.78;;;4.86;77.89
83191;BME280;73087;49.924;22.080;2023-11-19T03:59:02;99231.00;;;4.87;78.06
83191;BME280;73087;49.924;22.080;2023-11-19T04:00:03;99226.72;;;4.86;78.33
83191;BME280;73087;49.924;22.080;2023-11-19T04:01:04;99221.63;;;4.84;78.25
83191;BME280;73087;49.924;22.080;2023-11-19T04:02:05;99225.78;;;4.87;78.38
83191;BME280;73087;49.924;22.080;2023-11-19T04:03:05;99225.63;;;4.90;78.10
83191;BME280;73087;49.924;22.080;2023-11-19T04:04:06;99222.09;;;4.91;77.64
83191;BME280;73087;49.924;22.080;2023-11-19T04:05:07;99225.13;;;4.99;77.58
83191;BME280;73087;49.924;22.080;2023-11-19T04:06:08;99224.09;;;5.01;78.46
83191;BME280;73087;49.924;22.080;2023-11-19T04:07:08;99221.41;;;5.03;77.65
83191;BME280;73087;49.924;22.080;2023-11-19T04:08:09;99217.72;;;5.07;77.64
83191;BME280;73087;49.924;22.080;2023-11-19T04:09:09;99214.84;;;5.11;78.61
83191;BME280;73087;49.924;22.080;2023-11-19T04:10:10;99220.72;;;5.15;78.17
83191;BME280;73087;49.924;22.080;2023-11-19T04:11:10;99213.66;;;5.17;77.16
83191;BME280;73087;49.924;22.080;2023-11-19T04:12:11;99211.63;;;5.22;78.03
83191;BME280;73087;49.924;22.080;2023-11-19T04:13:11;99214.03;;;5.25;77.24
83191;BME280;73087;49.924;22.080;2023-11-19T04:14:13;99201.38;;;5.19;78.20
83191;BME280;73087;49.924;22.080;2023-11-19T04:15:14;99213.09;;;5.26;77.08
83191;BME280;73087;49.924;22.080;2023-11-19T04:16:15;99209.75;;;5.24;77.59
83191;BME280;73087;49.924;22.080;2023-11-19T04:17:15;99206.41;;;5.22;76.86
83191;BME280;73087;49.924;22.080;2023-11-19T04:18:16;99206.59;;;5.19;77.94
83191;BME280;73087;49.924;22.080;2023-11-19T04:19:16;99205.94;;;5.15;76.69
83191;BME280;73087;49.924;22.080;2023-11-19T04:20:17;99206.94;;;5.13;77.30
83191;BME280;73087;49.924;22.080;2023-11-19T04:21:17;99203.53;;;5.12;77.59
83191;BME280;73087;49.924;22.080;2023-11-19T04:22:18;99201.91;;;5.10;77.18
83191;BME280;73087;49.924;22.080;2023-11-19T04:23:18;99207.13;;;5.10;76.94
83191;BME280;73087;49.924;22.080;2023-11-19T04:24:19;99203.78;;;5.08;77.08
83191;BME280;73087;49.924;22.080;2023-11-19T04:25:19;99200.41;;;5.06;77.02
83191;BME280;73087;49.924;22.080;2023-11-19T04:26:20;99205.81;;;5.03;76.82
83191;BME280;73087;49.924;22.080;2023-11-19T04:27:20;99212.69;;;5.04;77.11
83191;BME280;73087;49.924;22.080;2023-11-19T04:28:21;99219.75;;;5.02;77.63
83191;BME280;73087;49.924;22.080;2023-11-19T04:29:23;99215.28;;;5.04;77.70
83191;BME280;73087;49.924;22.080;2023-11-19T04:30:23;99216.03;;;5.06;77.92
83191;BME280;73087;49.924;22.080;2023-11-19T04:31:28;99216.03;;;5.06;77.65
83191;BME280;73087;49.924;22.080;2023-11-19T04:32:29;99215.84;;;5.09;77.84
83191;BME280;73087;49.924;22.080;2023-11-19T04:33:29;99219.22;;;5.11;77.40
83191;BME280;73087;49.924;22.080;2023-11-19T04:34:30;99215.69;;;5.12;77.84
83191;BME280;73087;49.924;22.080;2023-11-19T04:35:31;99217.34;;;5.13;77.61
83191;BME280;73087;49.924;22.080;2023-11-19T04:36:31;99207.88;;;5.12;77.00
83191;BME280;73087;49.924;22.080;2023-11-19T04:37:32;99213.81;;;5.14;76.35
83191;BME280;73087;49.924;22.080;2023-11-19T04:38:32;99205.09;;;5.15;77.08
83191;BME280;73087;49.924;22.080;2023-11-19T04:39:33;99201.56;;;5.16;77.02
83191;BME280;73087;49.924;22.080;2023-11-19T04:40:33;99210.13;;;5.18;77.15
83191;BME280;73087;49.924;22.080;2023-11-19T04:41:34;99200.75;;;5.15;76.44
83191;BME280;73087;49.924;22.080;2023-11-19T04:42:34;99203.41;;;5.14;76.88
83191;BME280;73087;49.924;22.080;2023-11-19T04:43:35;99205.28;;;5.12;76.77
83191;BME280;73087;49.924;22.080;2023-11-19T04:44:37;99208.81;;;5.11;76.71
83191;BME280;73087;49.924;22.080;2023-11-19T04:45:37;99196.72;;;5.10;76.72
83191;BME280;73087;49.924;22.080;2023-11-19T04:46:38;99195.03;;;5.09;76.95
83191;BME280;73087;49.924;22.080;2023-11-19T04:47:38;99193.53;;;5.05;76.39
83191;BME280;73087;49.924;22.080;2023-11-19T04:48:39;99192.03;;;5.01;76.95
83191;BME280;73087;49.924;22.080;2023-11-19T04:49:40;99190.53;;;4.97;76.66
83191;BME280;73087;49.924;22.080;2023-11-19T04:50:40;99189.00;;;4.93;76.19
83191;BME280;73087;49.924;22.080;2023-11-19T04:51:41;99184.00;;;4.90;77.46
83191;BME280;73087;49.924;22.080;2023-11-19T04:52:42;99194.56;;;4.87;77.54
83191;BME280;73087;49.924;22.080;2023-11-19T04:53:43;99184.34;;;4.84;76.88
83191;BME280;73087;49.924;22.080;2023-11-19T04:54:43;99187.22;;;4.79;77.27
83191;BME280;73087;49.924;22.080;2023-11-19T04:55:44;99179.50;;;4.78;76.79
83191;BME280;73087;49.924;22.080;2023-11-19T04:56:45;99181.34;;;4.76;76.99
83191;BME280;73087;49.924;22.080;2023-11-19T04:57:46;99181.53;;;4.73;78.10
83191;BME280;73087;49.924;22.080;2023-11-19T04:58:46;99185.03;;;4.72;77.58
83191;BME280;73087;49.924;22.080;2023-11-19T04:59:48;99180.03;;;4.69;77.34
83191;BME280;73087;49.924;22.080;2023-11-19T05:00:49;99180.19;;;4.66;77.83
83191;BME280;73087;49.924;22.080;2023-11-19T05:01:49;99187.25;;;4.64;77.79
83191;BME280;73087;49.924;22.080;2023-11-19T05:02:50;99180.50;;;4.60;77.34
83191;BME280;73087;49.924;22.080;2023-11-19T05:03:50;99176.41;;;4.56;77.56
83191;BME280;73087;49.924;22.080;2023-11-19T05:04:51;99184.97;;;4.58;78.15
83191;BME280;73087;49.924;22.080;2023-11-19T05:05:51;99169.53;;;4.55;78.17
83191;BME280;73087;49.924;22.080;2023-11-19T05:06:52;99173.81;;;4.56;78.44
83191;BME280;73087;49.924;22.080;2023-11-19T05:07:52;99173.97;;;4.53;77.97
83191;BME280;73087;49.924;22.080;2023-11-19T05:08:53;99172.31;;;4.52;78.48
83191;BME280;73087;49.924;22.080;2023-11-19T05:09:53;99167.28;;;4.49;78.46
83191;BME280;73087;49.924;22.080;2023-11-19T05:10:54;99159.66;;;4.46;77.70
83191;BME280;73087;49.924;22.080;2023-11-19T05:11:54;99164.84;;;4.46;78.05
83191;BME280;73087;49.924;22.080;2023-11-19T05:12:55;99155.38;;;4.45;77.83
83191;BME280;73087;49.924;22.080;2023-11-19T05:13:55;99152.19;;;4.40;77.89
83191;BME280;73087;49.924;22.080;2023-11-19T05:14:57;99146.31;;;4.37;78.30
83191;BME280;73087;49.924;22.080;2023-11-19T05:15:58;99143.81;;;4.35;77.71
83191;BME280;73087;49.924;22.080;2023-11-19T05:16:58;99145.50;;;4.36;77.79
83191;BME280;73087;49.924;22.080;2023-11-19T05:17:59;99143.63;;;4.38;78.41
83191;BME280;73087;49.924;22.080;2023-11-19T05:18:59;99129.88;;;4.36;78.56
83191;BME280;73087;49.924;22.080;2023-11-19T05:20:00;99131.75;;;4.34;78.26
83191;BME280;73087;49.924;22.080;2023-11-19T05:21:00;99128.38;;;4.32;78.06
83191;BME280;73087;49.924;22.080;2023-11-19T05:22:01;99125.00;;;4.30;78.95